Time;durP1;ratioP1;P1;durP2;ratioP2;P2;SDS_P1;SDS_P2;PMS_P1;PMS_P2;Temp;Humidity;BMP_temperature;BMP_pressure;BME280_temperature;BME280_humidity;BME280_pressure;Samples;Min_cycle;Max_cycle;Signal;HPM_P1;HPM_P2
2023/10/25 00:00:20;;;;;;;5.67;5.17;;;15.00;90.00;;;;;;5022593;28;20483;-70
2023/10/25 00:02:47;;;;;;;5.50;5.00;;;15.00;90.00;;;;;;5023814;28;20453;-71
2023/10/25 00:05:14;;;;;;;6.17;5.60;;;15.00;90.40;;;;;;5035035;28;20467;-70
2023/10/25 00:07:40;;;;;;;5.67;5.17;;;15.00;90.10;;;;;;5018105;28;20493;-70
2023/10/25 00:10:10;;;;;;;6.40;5.53;;;15.00;90.00;;;;;;5015698;28;20492;-70
2023/10/25 00:12:37;;;;;;;5.83;5.23;;;15.00;90.00;;;;;;5015454;28;20464;-70
2023/10/25 00:15:06;;;;;;;5.70;5.20;;;15.00;89.80;;;;;;5027325;28;20477;-70
2023/10/25 00:17:33;;;;;;;6.23;5.63;;;15.00;89.80;;;;;;5024142;28;20478;-70
2023/10/25 00:20:02;;;;;;;6.73;6.07;;;15.00;89.80;;;;;;5025189;28;20476;-70
2023/10/25 00:22:29;;;;;;;7.63;5.90;;;15.00;89.60;;;;;;4971526;28;20464;-70
2023/10/25 00:24:56;;;;;;;7.63;5.63;;;15.00;89.90;;;;;;5016176;28;20481;-71
2023/10/25 00:27:23;;;;;;;6.17;5.57;;;15.00;90.00;;;;;;5029927;28;20453;-70
2023/10/25 00:29:50;;;;;;;7.03;5.13;;;14.90;89.80;;;;;;5031425;28;21051;-70
2023/10/25 00:32:18;;;;;;;5.07;4.57;;;15.00;89.80;;;;;;5028931;28;20810;-70
2023/10/25 00:34:45;;;;;;;5.03;4.53;;;14.90;89.50;;;;;;5034463;28;20457;-70
2023/10/25 00:37:12;;;;;;;5.90;5.10;;;14.90;89.40;;;;;;5027645;28;20495;-70
2023/10/25 00:39:39;;;;;;;5.60;5.00;;;14.90;89.30;;;;;;5034885;28;20884;-70
2023/10/25 00:42:06;;;;;;;5.63;4.77;;;14.90;89.30;;;;;;5034157;28;20483;-70
2023/10/25 00:44:33;;;;;;;5.43;4.90;;;14.90;89.30;;;;;;5022381;28;20921;-71
2023/10/25 00:47:01;;;;;;;6.13;4.83;;;14.90;89.30;;;;;;5029757;28;20477;-71
2023/10/25 00:49:29;;;;;;;5.33;4.83;;;14.90;89.40;;;;;;5016060;28;20460;-71
2023/10/25 00:51:57;;;;;;;6.17;5.20;;;14.90;89.40;;;;;;5014864;28;20843;-70
2023/10/25 00:54:24;;;;;;;5.47;4.20;;;14.80;89.30;;;;;;5027536;28;20460;-70
2023/10/25 00:56:51;;;;;;;5.27;4.77;;;14.90;89.40;;;;;;5052899;28;20440;-70
2023/10/25 00:59:20;;;;;;;5.97;4.80;;;14.90;89.50;;;;;;5046856;28;20475;-70
2023/10/25 01:01:47;;;;;;;9.20;5.67;;;14.90;89.40;;;;;;5032177;28;20437;-70
2023/10/25 01:04:14;;;;;;;5.13;4.73;;;14.90;89.40;;;;;;5015690;28;20470;-70
2023/10/25 01:06:43;;;;;;;5.43;4.97;;;14.90;89.40;;;;;;5014276;28;20950;-70
2023/10/25 01:09:10;;;;;;;6.67;4.87;;;14.90;89.30;;;;;;5025193;28;20523;-71
2023/10/25 01:11:38;;;;;;;5.43;4.73;;;14.90;89.30;;;;;;5023318;28;20485;-70
2023/10/25 01:14:05;;;;;;;4.50;4.10;;;14.80;89.10;;;;;;5033757;28;20465;-71
2023/10/25 01:16:32;;;;;;;4.87;4.37;;;14.90;89.00;;;;;;5033638;28;20459;-70
2023/10/25 01:18:59;;;;;;;4.90;4.20;;;14.90;89.00;;;;;;5018275;28;20458;-70
2023/10/25 01:21:26;;;;;;;5.33;4.83;;;14.80;88.80;;;;;;5023574;28;20450;-70
2023/10/25 01:23:54;;;;;;;5.47;4.77;;;14.80;88.90;;;;;;5027989;28;20454;-70
2023/10/25 01:26:21;;;;;;;5.37;4.70;;;14.80;88.90;;;;;;5032962;28;20479;-70
2023/10/25 01:28:49;;;;;;;5.30;4.80;;;14.80;88.70;;;;;;5021873;28;20453;-69
2023/10/25 01:31:18;;;;;;;5.40;4.90;;;14.80;88.60;;;;;;5027731;28;20484;-70
2023/10/25 01:33:45;;;;;;;5.07;4.60;;;14.80;88.30;;;;;;5030555;28;20478;-70
2023/10/25 01:36:12;;;;;;;5.70;4.80;;;14.70;88.10;;;;;;5024114;28;20442;-71
2023/10/25 01:38:39;;;;;;;5.10;4.70;;;14.70;87.90;;;;;;5027870;28;20453;-70
2023/10/25 01:41:13;;;;;;;5.57;4.37;;;14.70;87.90;;;;;;5033402;28;20945;-70
2023/10/25 01:43:40;;;;;;;9.73;3.90;;;14.60;88.00;;;;;;5019661;28;20493;-70
2023/10/25 01:46:07;;;;;;;11.70;3.97;;;14.50;88.10;;;;;;5014834;28;20958;-70
2023/10/25 01:48:34;;;;;;;5.57;3.30;;;14.40;88.20;;;;;;5025566;28;21000;-70
2023/10/25 01:51:01;;;;;;;3.80;3.50;;;14.40;88.30;;;;;;5015110;28;20490;-70
2023/10/25 01:53:29;;;;;;;3.40;3.20;;;14.40;88.50;;;;;;5024713;28;20968;-71
2023/10/25 01:55:56;;;;;;;3.67;3.37;;;14.40;88.70;;;;;;5024468;28;20767;-70
2023/10/25 01:58:24;;;;;;;3.03;2.83;;;14.40;88.90;;;;;;5033096;28;20515;-70
2023/10/25 02:00:51;;;;;;;3.30;3.00;;;14.40;88.00;;;;;;5020479;28;20458;-70
2023/10/25 02:03:18;;;;;;;3.70;3.30;;;14.40;88.00;;;;;;5051819;28;20441;-70
2023/10/25 02:05:45;;;;;;;3.40;3.10;;;14.40;87.80;;;;;;5044719;28;20468;-71
2023/10/25 02:08:11;;;;;;;3.80;3.50;;;14.30;87.70;;;;;;5038840;28;20464;-70
2023/10/25 02:10:38;;;;;;;3.93;3.63;;;14.40;87.90;;;;;;5033760;28;20489;-70
2023/10/25 02:13:05;;;;;;;3.20;3.00;;;14.40;87.90;;;;;;5033067;28;20449;-70
2023/10/25 02:15:33;;;;;;;3.10;2.90;;;14.40;87.70;;;;;;5032330;28;20477;-70
2023/10/25 02:18:00;;;;;;;2.90;2.70;;;14.40;87.70;;;;;;5032984;28;20466;-70
2023/10/25 02:20:29;;;;;;;3.87;3.57;;;14.40;87.60;;;;;;5032463;28;20962;-70
2023/10/25 02:23:00;;;;;;;3.67;3.23;;;14.40;87.50;;;;;;5027316;28;20686;-70
2023/10/25 02:25:27;;;;;;;4.93;3.30;;;14.30;87.30;;;;;;5025013;28;20462;-70
2023/10/25 02:27:53;;;;;;;4.27;2.90;;;14.30;87.00;;;;;;5031148;28;20480;-70
2023/10/25 02:30:20;;;;;;;3.67;3.37;;;14.30;87.00;;;;;;5025552;28;20489;-70
2023/10/25 02:32:50;;;;;;;3.33;3.07;;;14.30;87.10;;;;;;5029889;28;20994;-70
2023/10/25 02:35:18;;;;;;;3.33;3.03;;;14.30;87.00;;;;;;4975092;28;20528;-70
2023/10/25 02:37:44;;;;;;;3.50;3.20;;;14.30;87.10;;;;;;5013637;28;20493;-71
2023/10/25 02:40:12;;;;;;;3.00;2.73;;;14.20;86.90;;;;;;5018098;28;20461;-70
2023/10/25 02:42:42;;;;;;;3.60;3.30;;;14.20;86.90;;;;;;4979722;28;20529;-70
2023/10/25 02:45:09;;;;;;;3.40;3.20;;;14.20;86.80;;;;;;5010876;28;20520;-70
2023/10/25 02:47:36;;;;;;;3.63;3.03;;;14.20;86.90;;;;;;5012431;28;20458;-70
2023/10/25 02:50:06;;;;;;;3.17;2.80;;;14.20;86.90;;;;;;5022331;28;20473;-70
2023/10/25 02:52:33;;;;;;;3.47;3.17;;;14.20;86.90;;;;;;5021522;28;20561;-70
2023/10/25 02:55:00;;;;;;;3.30;3.00;;;14.20;86.90;;;;;;5031567;28;20568;-71
2023/10/25 02:57:28;;;;;;;3.87;3.07;;;14.20;87.00;;;;;;5020697;28;20556;-70
2023/10/25 02:59:55;;;;;;;3.10;2.80;;;14.20;86.90;;;;;;5022122;28;20485;-70
2023/10/25 03:02:22;;;;;;;3.17;2.87;;;14.10;87.30;;;;;;5031586;28;20473;-70
2023/10/25 03:04:51;;;;;;;3.93;2.97;;;14.10;86.50;;;;;;5031489;28;20557;-71
2023/10/25 03:07:19;;;;;;;3.47;3.17;;;14.10;86.60;;;;;;5013298;28;20473;-70
2023/10/25 03:09:46;;;;;;;4.77;3.47;;;14.10;86.40;;;;;;5017261;28;20450;-70
2023/10/25 03:12:13;;;;;;;3.17;2.97;;;14.10;86.50;;;;;;5020251;28;20504;-70
2023/10/25 03:14:40;;;;;;;3.43;3.13;;;14.10;86.50;;;;;;5012590;28;20496;-70
2023/10/25 03:17:07;;;;;;;4.43;3.00;;;14.10;86.50;;;;;;5027078;28;20459;-70
2023/10/25 03:19:34;;;;;;;2.97;2.77;;;14.00;86.50;;;;;;5028647;28;20449;-70
2023/10/25 03:22:02;;;;;;;2.87;2.63;;;14.00;86.60;;;;;;5022639;28;20465;-70
2023/10/25 03:24:31;;;;;;;2.90;2.70;;;14.00;86.50;;;;;;5027409;28;20488;-70
2023/10/25 03:26:57;;;;;;;2.60;2.40;;;14.00;87.20;;;;;;5022442;28;20833;-70
2023/10/25 03:29:24;;;;;;;2.40;2.20;;;14.10;86.70;;;;;;5013944;28;20476;-70
2023/10/25 03:31:53;;;;;;;2.87;2.67;;;14.00;86.40;;;;;;5030258;28;20480;-70
2023/10/25 03:34:20;;;;;;;2.60;2.40;;;14.10;86.50;;;;;;5031155;28;21007;-70
2023/10/25 03:36:48;;;;;;;2.53;2.33;;;14.00;86.30;;;;;;5020164;28;20460;-70
2023/10/25 03:39:15;;;;;;;2.80;2.60;;;14.00;86.50;;;;;;5016232;28;20449;-70
2023/10/25 03:41:43;;;;;;;2.63;2.43;;;14.00;86.60;;;;;;5031586;28;20477;-70
2023/10/25 03:44:10;;;;;;;3.47;3.17;;;14.00;86.70;;;;;;5023087;28;20453;-70
2023/10/25 03:46:38;;;;;;;2.77;2.57;;;14.00;86.70;;;;;;5010703;28;20838;-70
2023/10/25 03:49:05;;;;;;;3.70;3.10;;;14.00;86.70;;;;;;5014746;28;20456;-71
2023/10/25 03:51:32;;;;;;;2.90;2.60;;;14.00;86.80;;;;;;5023569;28;20485;-70
2023/10/25 03:54:00;;;;;;;3.30;3.00;;;14.00;86.70;;;;;;5025264;28;20453;-70
2023/10/25 03:56:27;;;;;;;3.83;3.23;;;14.00;87.00;;;;;;4993733;28;20444;-70
2023/10/25 03:58:55;;;;;;;3.37;2.83;;;14.00;87.20;;;;;;5030898;28;20481;-70
2023/10/25 04:01:24;;;;;;;2.87;2.67;;;14.00;87.30;;;;;;5025783;28;20462;-70
2023/10/25 04:03:51;;;;;;;4.50;2.80;;;14.00;87.10;;;;;;5033206;28;20468;-71
2023/10/25 04:06:18;;;;;;;3.13;2.90;;;13.90;86.70;;;;;;4977282;28;20465;-71
2023/10/25 04:08:45;;;;;;;3.27;2.97;;;13.90;86.60;;;;;;5011574;28;20456;-71
2023/10/25 04:11:12;;;;;;;5.57;2.60;;;13.90;86.60;;;;;;5012010;28;20482;-70
2023/10/25 04:13:39;;;;;;;2.70;2.50;;;13.90;86.60;;;;;;5013838;28;20450;-70
2023/10/25 04:16:09;;;;;;;3.20;2.90;;;13.90;86.50;;;;;;5013940;28;20969;-70
2023/10/25 04:18:36;;;;;;;3.00;2.70;;;13.90;86.30;;;;;;5011431;28;20461;-70
2023/10/25 04:21:08;;;;;;;2.83;2.63;;;13.80;86.30;;;;;;5030430;28;20530;-71
2023/10/25 04:23:35;;;;;;;2.87;2.57;;;13.80;86.60;;;;;;5015809;28;20629;-71
2023/10/25 04:26:06;;;;;;;2.80;2.60;;;13.80;86.50;;;;;;5014729;28;20485;-70
2023/10/25 04:28:33;;;;;;;4.23;2.53;;;13.80;86.40;;;;;;5024068;28;20468;-70
2023/10/25 04:31:01;;;;;;;2.67;2.47;;;13.80;86.10;;;;;;5018283;28;20923;-69
2023/10/25 04:33:30;;;;;;;2.70;2.50;;;13.80;86.00;;;;;;5017373;28;20464;-70
2023/10/25 04:35:57;;;;;;;4.20;2.80;;;13.70;85.80;;;;;;5029853;28;20457;-70
2023/10/25 04:38:24;;;;;;;2.77;2.57;;;13.70;85.70;;;;;;5030240;28;20564;-69
2023/10/25 04:40:54;;;;;;;4.10;2.37;;;13.70;85.50;;;;;;5028503;28;20555;-70
2023/10/25 04:43:23;;;;;;;4.23;2.43;;;13.70;85.30;;;;;;5030911;28;21010;-70
2023/10/25 04:45:51;;;;;;;2.60;2.40;;;13.60;85.30;;;;;;5030504;28;20456;-70
2023/10/25 04:48:18;;;;;;;3.87;2.57;;;13.60;85.30;;;;;;5020067;28;20442;-69
2023/10/25 04:50:48;;;;;;;3.77;2.87;;;13.50;85.20;;;;;;5014727;28;20544;-70
2023/10/25 04:53:15;;;;;;;3.97;2.60;;;13.50;85.00;;;;;;5017294;28;20464;-68
2023/10/25 04:55:46;;;;;;;3.57;2.70;;;13.50;84.90;;;;;;5029817;28;20481;-70
2023/10/25 04:58:13;;;;;;;3.40;2.90;;;13.50;84.80;;;;;;5041593;28;20830;-70
2023/10/25 05:00:40;;;;;;;3.10;2.77;;;13.40;84.60;;;;;;5033816;28;21020;-69
2023/10/25 05:03:10;;;;;;;3.90;3.60;;;13.40;84.50;;;;;;5029410;28;20446;-70
2023/10/25 05:05:37;;;;;;;6.03;3.80;;;13.40;84.60;;;;;;5016979;28;20457;-70
2023/10/25 05:08:07;;;;;;;3.57;3.27;;;13.30;84.50;;;;;;5032859;28;20472;-70
2023/10/25 05:10:34;;;;;;;3.33;3.03;;;13.30;84.50;;;;;;5024435;28;20450;-70
2023/10/25 05:13:01;;;;;;;3.93;3.30;;;13.30;84.40;;;;;;5031156;28;20499;-70
2023/10/25 05:15:29;;;;;;;3.67;3.17;;;13.30;84.40;;;;;;5026366;28;20839;-69
2023/10/25 05:17:56;;;;;;;3.60;3.30;;;13.30;84.20;;;;;;5003284;28;20539;-70
2023/10/25 05:20:23;;;;;;;5.37;3.90;;;13.30;84.30;;;;;;5033711;28;20475;-70
2023/10/25 05:22:52;;;;;;;4.30;3.90;;;13.20;84.40;;;;;;5022508;28;20445;-70
2023/10/25 05:25:21;;;;;;;3.57;3.27;;;13.20;84.40;;;;;;5022862;28;20536;-70
2023/10/25 05:27:49;;;;;;;3.53;2.90;;;13.20;85.20;;;;;;5025371;28;20446;-71
2023/10/25 05:30:17;;;;;;;3.37;3.07;;;13.20;84.40;;;;;;5035423;28;20460;-71
2023/10/25 05:32:50;;;;;;;3.90;3.33;;;13.20;84.50;;;;;;5031842;28;20492;-71
2023/10/25 05:35:19;;;;;;;4.67;3.53;;;13.20;84.50;;;;;;5025806;28;20974;-70
2023/10/25 05:37:49;;;;;;;3.70;3.40;;;13.20;84.70;;;;;;5015610;28;20458;-70
2023/10/25 05:40:22;;;;;;;3.33;3.03;;;13.20;84.90;;;;;;5017956;28;20569;-70
2023/10/25 05:42:49;;;;;;;3.27;2.97;;;13.10;84.90;;;;;;5044409;28;20841;-70
2023/10/25 05:45:18;;;;;;;2.90;2.70;;;13.20;85.10;;;;;;5051055;28;20472;-70
2023/10/25 05:47:51;;;;;;;3.23;2.90;;;13.20;85.10;;;;;;5033501;28;20455;-69
2023/10/25 05:50:19;;;;;;;5.13;3.00;;;13.20;85.20;;;;;;5033319;28;20449;-70
2023/10/25 05:52:46;;;;;;;4.57;3.43;;;13.20;85.10;;;;;;5032689;28;20495;-70
2023/10/25 05:55:15;;;;;;;4.70;2.90;;;13.20;85.00;;;;;;5031059;28;20497;-69
2023/10/25 05:57:45;;;;;;;3.53;3.23;;;13.20;84.70;;;;;;5038601;28;20463;-70
2023/10/25 06:00:13;;;;;;;4.07;3.23;;;13.20;84.70;;;;;;5052705;28;20534;-69
2023/10/25 06:02:42;;;;;;;3.53;3.23;;;13.20;84.70;;;;;;5048375;28;20469;-69
2023/10/25 06:05:12;;;;;;;3.20;2.90;;;13.20;84.50;;;;;;5019847;28;20462;-70
2023/10/25 06:07:40;;;;;;;3.70;3.00;;;13.20;84.50;;;;;;5017500;28;20482;-70
2023/10/25 06:10:08;;;;;;;4.13;3.30;;;13.10;84.50;;;;;;5021128;28;20454;-71
2023/10/25 06:12:35;;;;;;;3.40;3.10;;;13.10;84.60;;;;;;5031155;28;20485;-70
2023/10/25 06:15:05;;;;;;;3.93;3.27;;;13.20;85.00;;;;;;5030194;28;20460;-70
2023/10/25 06:17:35;;;;;;;5.03;3.10;;;13.10;85.00;;;;;;5027175;28;20811;-70
2023/10/25 06:20:01;;;;;;;4.03;2.80;;;13.20;85.20;;;;;;5018857;28;20477;-71
2023/10/25 06:22:28;;;;;;;3.30;3.00;;;13.20;85.30;;;;;;5031281;28;20453;-69
2023/10/25 06:24:55;;;;;;;3.27;2.97;;;13.20;85.40;;;;;;5030388;28;20476;-70
2023/10/25 06:27:22;;;;;;;5.00;3.93;;;13.20;85.50;;;;;;5029577;28;20513;-69
2023/10/25 06:29:49;;;;;;;6.30;3.57;;;13.20;85.70;;;;;;5022968;28;20556;-69
2023/10/25 06:32:17;;;;;;;3.40;3.10;;;13.30;85.70;;;;;;5022257;28;20845;-70
2023/10/25 06:34:47;;;;;;;3.77;3.10;;;13.30;85.80;;;;;;5036852;28;20859;-70
2023/10/25 06:37:14;;;;;;;5.50;3.40;;;13.30;85.80;;;;;;5037734;28;20475;-70
2023/10/25 06:39:41;;;;;;;7.50;3.60;;;13.30;85.70;;;;;;5040086;28;20536;-70
2023/10/25 06:42:10;;;;;;;3.40;3.10;;;13.30;85.70;;;;;;5042674;28;20471;-70
2023/10/25 06:44:37;;;;;;;4.13;3.33;;;13.30;85.50;;;;;;4987340;28;20461;-69
2023/10/25 06:47:06;;;;;;;3.20;2.90;;;13.40;85.80;;;;;;4996145;28;20534;-70
2023/10/25 06:49:34;;;;;;;3.30;3.00;;;13.40;86.10;;;;;;5023641;28;20545;-69
2023/10/25 06:52:02;;;;;;;3.57;3.27;;;13.40;86.60;;;;;;5026931;28;20844;-69
2023/10/25 06:54:29;;;;;;;3.80;3.50;;;13.40;87.00;;;;;;5032156;28;20457;-69
2023/10/25 06:56:57;;;;;;;5.13;3.80;;;13.40;87.50;;;;;;5032616;28;20528;-69
2023/10/25 06:59:25;;;;;;;4.10;3.67;;;13.50;87.70;;;;;;5030339;28;20547;-70
2023/10/25 07:02:01;;;;;;;3.60;3.17;;;13.50;87.90;;;;;;5032223;28;20446;-68
2023/10/25 07:04:29;;;;;;;4.70;3.10;;;13.60;88.10;;;;;;5031938;28;20473;-70
2023/10/25 07:06:58;;;;;;;4.27;2.80;;;13.60;88.10;;;;;;5031942;28;21036;-69
2023/10/25 07:09:25;;;;;;;3.40;3.00;;;13.70;88.20;;;;;;5031475;28;20624;-69
2023/10/25 07:11:51;;;;;;;3.53;2.90;;;13.80;88.30;;;;;;5030255;28;20485;-70
2023/10/25 07:14:19;;;;;;;4.33;3.23;;;13.80;88.20;;;;;;5031626;28;20484;-70
2023/10/25 07:16:45;;;;;;;3.97;3.67;;;13.90;88.10;;;;;;5031193;28;20839;-70
2023/10/25 07:19:12;;;;;;;7.27;4.17;;;13.90;88.10;;;;;;5028505;28;20810;-70
2023/10/25 07:21:39;;;;;;;3.30;3.00;;;13.90;88.30;;;;;;5040215;28;20461;-71
2023/10/25 07:24:08;;;;;;;4.63;3.07;;;14.00;88.50;;;;;;5031807;28;20499;-70
2023/10/25 07:26:36;;;;;;;3.30;3.00;;;14.10;88.80;;;;;;5031676;28;20503;-70
2023/10/25 07:29:03;;;;;;;3.23;2.50;;;14.10;88.80;;;;;;5029216;28;20529;-70
2023/10/25 07:31:30;;;;;;;2.33;2.13;;;14.20;88.80;;;;;;5021740;28;20540;-70
2023/10/25 07:33:57;;;;;;;2.17;1.97;;;14.30;88.90;;;;;;5030749;28;20862;-70
2023/10/25 07:36:24;;;;;;;2.80;2.07;;;14.40;88.70;;;;;;5031202;28;20453;-70
2023/10/25 07:38:52;;;;;;;3.33;1.87;;;14.50;88.80;;;;;;5031294;28;21069;-70
2023/10/25 07:41:21;;;;;;;1.70;1.60;;;14.60;88.60;;;;;;5031207;28;20473;-71
2023/10/25 07:43:48;;;;;;;1.30;1.20;;;14.70;89.10;;;;;;5030004;28;20921;-70
2023/10/25 07:46:15;;;;;;;1.83;1.33;;;14.80;88.20;;;;;;5016081;28;20537;-70
2023/10/25 07:48:44;;;;;;;2.33;1.20;;;14.80;88.00;;;;;;5025867;28;20540;-68
2023/10/25 07:51:11;;;;;;;2.00;1.53;;;14.90;88.90;;;;;;4976374;28;20744;-69
2023/10/25 07:53:38;;;;;;;1.50;1.30;;;14.90;87.50;;;;;;5010776;28;20499;-70
2023/10/25 07:56:07;;;;;;;1.63;1.50;;;14.90;87.70;;;;;;5010756;28;20450;-69
2023/10/25 07:58:36;;;;;;;2.93;1.87;;;15.00;87.40;;;;;;5026223;28;20745;-69
2023/10/25 08:01:02;;;;;;;4.50;2.10;;;15.00;88.00;;;;;;5030820;28;20813;-69
2023/10/25 08:03:29;;;;;;;2.13;1.60;;;15.00;87.50;;;;;;5029698;28;20496;-69
2023/10/25 08:05:57;;;;;;;1.57;1.47;;;15.00;87.80;;;;;;5030327;28;20448;-69
2023/10/25 08:08:23;;;;;;;2.20;1.80;;;15.10;87.70;;;;;;5033482;28;20985;-69
2023/10/25 08:10:59;;;;;;;1.90;1.70;;;15.20;87.40;;;;;;5033842;28;21012;-68
2023/10/25 08:13:26;;;;;;;2.13;1.30;;;15.20;88.60;;;;;;5033408;28;20899;-69
2023/10/25 08:15:58;;;;;;;2.83;1.77;;;15.30;87.70;;;;;;5033740;28;20873;-69
2023/10/25 08:18:26;;;;;;;1.67;1.57;;;15.30;88.10;;;;;;5033554;28;21019;-69
2023/10/25 08:20:53;;;;;;;2.87;1.80;;;15.40;88.10;;;;;;5034351;28;20457;-69
2023/10/25 08:23:20;;;;;;;3.17;1.70;;;15.40;88.00;;;;;;5033996;28;20613;-69
2023/10/25 08:25:47;;;;;;;1.80;1.70;;;15.50;88.30;;;;;;5034163;28;20444;-69
2023/10/25 08:28:14;;;;;;;1.80;1.70;;;15.60;88.20;;;;;;5034210;28;21046;-69
2023/10/25 08:30:41;;;;;;;2.73;1.50;;;15.60;88.50;;;;;;5034049;28;20448;-69
2023/10/25 08:33:10;;;;;;;2.50;1.70;;;15.70;88.20;;;;;;5033613;28;20496;-69
2023/10/25 08:35:37;;;;;;;1.83;1.60;;;15.70;88.00;;;;;;5034179;28;20455;-69
2023/10/25 08:38:04;;;;;;;2.30;1.80;;;15.70;87.90;;;;;;5033792;28;20539;-69
2023/10/25 08:40:32;;;;;;;3.40;1.53;;;15.80;88.20;;;;;;5033714;28;20484;-69
2023/10/25 08:42:59;;;;;;;2.73;2.00;;;15.90;88.10;;;;;;5033484;28;20536;-69
2023/10/25 08:45:26;;;;;;;1.90;1.70;;;16.00;88.10;;;;;;5033640;28;20802;-69
2023/10/25 08:47:54;;;;;;;1.80;1.50;;;16.00;87.90;;;;;;5036750;28;20456;-69
2023/10/25 08:50:22;;;;;;;1.80;1.40;;;16.10;88.20;;;;;;5046907;28;20456;-69
2023/10/25 08:52:50;;;;;;;3.00;1.70;;;16.10;88.00;;;;;;5044163;28;20519;-69
2023/10/25 08:55:19;;;;;;;2.37;1.53;;;16.10;88.10;;;;;;5048882;28;20453;-70
2023/10/25 08:57:53;;;;;;;1.93;1.23;;;16.20;88.30;;;;;;5036681;28;20528;-69
2023/10/25 09:00:21;;;;;;;1.83;1.37;;;16.20;88.10;;;;;;5037631;28;20571;-69
2023/10/25 09:02:47;;;;;;;2.80;1.50;;;16.20;87.80;;;;;;5034749;28;20445;-69
2023/10/25 09:05:14;;;;;;;2.70;1.30;;;16.20;88.00;;;;;;5033573;28;20475;-69
2023/10/25 09:07:43;;;;;;;2.00;1.53;;;16.20;87.80;;;;;;5033127;28;20447;-68
2023/10/25 09:10:13;;;;;;;2.67;1.60;;;16.30;88.30;;;;;;5033544;28;20445;-69
2023/10/25 09:12:40;;;;;;;1.50;1.40;;;16.30;88.20;;;;;;5033312;28;20499;-69
2023/10/25 09:15:08;;;;;;;2.27;1.50;;;16.30;88.30;;;;;;5033268;28;20449;-69
2023/10/25 09:17:35;;;;;;;2.00;1.80;;;16.20;88.20;;;;;;5019978;28;20454;-70
2023/10/25 09:20:02;;;;;;;1.93;1.83;;;16.30;88.50;;;;;;5013338;28;20537;-69
2023/10/25 09:22:30;;;;;;;1.40;1.30;;;16.30;88.50;;;;;;5030269;28;20445;-69
2023/10/25 09:25:00;;;;;;;1.43;1.33;;;16.40;89.20;;;;;;5032884;28;20473;-69
2023/10/25 09:27:27;;;;;;;2.57;1.90;;;16.50;89.40;;;;;;5033345;28;20552;-69
2023/10/25 09:29:55;;;;;;;2.87;2.13;;;16.50;89.00;;;;;;5033266;28;20544;-69
2023/10/25 09:32:22;;;;;;;1.90;1.80;;;16.50;88.80;;;;;;5032981;28;20855;-69
2023/10/25 09:34:50;;;;;;;2.50;1.70;;;16.50;89.40;;;;;;5032578;28;20449;-69
2023/10/25 09:37:17;;;;;;;2.50;1.90;;;16.50;89.20;;;;;;5032760;28;20536;-70
2023/10/25 09:39:45;;;;;;;2.80;1.90;;;16.50;89.40;;;;;;5033208;28;20472;-69
2023/10/25 09:42:15;;;;;;;2.27;1.70;;;16.50;89.50;;;;;;5033118;28;20798;-69
2023/10/25 09:44:47;;;;;;;3.53;1.90;;;16.60;89.50;;;;;;5033404;28;20902;-69
2023/10/25 09:47:17;;;;;;;2.67;1.60;;;16.60;89.50;;;;;;5023864;28;20485;-69
2023/10/25 09:49:49;;;;;;;2.77;1.90;;;16.60;89.10;;;;;;5012870;28;20478;-69
2023/10/25 09:52:22;;;;;;;2.83;1.80;;;16.60;89.50;;;;;;5012603;28;20843;-70
2023/10/25 09:54:52;;;;;;;2.07;1.90;;;16.60;89.80;;;;;;5012811;28;20450;-69
2023/10/25 09:57:21;;;;;;;2.27;1.83;;;16.70;89.90;;;;;;5012947;28;20548;-68
2023/10/25 09:59:51;;;;;;;2.10;2.00;;;16.70;90.00;;;;;;5012478;28;21059;-69
2023/10/25 10:02:27;;;;;;;2.20;2.00;;;16.70;89.70;;;;;;5012451;28;20457;-69
2023/10/25 10:04:57;;;;;;;2.13;1.93;;;16.70;89.70;;;;;;5012449;28;20489;-69
2023/10/25 10:07:35;;;;;;;2.40;2.10;;;16.70;89.70;;;;;;5012425;28;20437;-69
2023/10/25 10:10:15;;;;;;;2.77;2.10;;;16.70;90.00;;;;;;5012200;28;20988;-69
2023/10/25 10:12:43;;;;;;;4.67;1.90;;;16.80;90.10;;;;;;5012506;28;20580;-69
2023/10/25 10:15:12;;;;;;;2.17;1.90;;;16.80;90.10;;;;;;5012251;28;20452;-69
2023/10/25 10:17:43;;;;;;;3.13;2.17;;;16.90;89.90;;;;;;5024307;28;20515;-69
2023/10/25 10:20:23;;;;;;;3.17;1.93;;;17.00;90.00;;;;;;5031802;28;20468;-69
2023/10/25 10:23:02;;;;;;;4.27;3.00;;;17.10;90.10;;;;;;5012916;28;20794;-69
2023/10/25 10:25:45;;;;;;;4.97;2.70;;;17.10;90.40;;;;;;5012109;28;20537;-69
2023/10/25 10:28:14;;;;;;;3.20;2.67;;;17.10;90.40;;;;;;5012083;28;20450;-69
2023/10/25 10:30:41;;;;;;;2.73;2.20;;;17.10;90.60;;;;;;5011986;28;21017;-69
2023/10/25 10:33:10;;;;;;;3.40;2.60;;;17.10;90.70;;;;;;5011998;28;20858;-69
2023/10/25 10:35:40;;;;;;;2.43;2.13;;;17.20;90.80;;;;;;5011478;28;20453;-69
2023/10/25 10:38:07;;;;;;;2.47;2.27;;;17.20;90.70;;;;;;5012085;28;20454;-69
2023/10/25 10:43:10;;;;;;;2.20;2.00;;;17.30;90.70;;;;;;5158728;22;20507;-69
2023/10/25 10:45:43;;;;;;;2.53;2.33;;;17.30;90.80;;;;;;5051264;28;20442;-69
2023/10/25 10:48:17;;;;;;;2.60;2.40;;;17.30;90.90;;;;;;5035414;28;20289;-69
2023/10/25 10:50:46;;;;;;;2.40;2.20;;;17.40;90.90;;;;;;5031290;28;20535;-69
2023/10/25 10:53:13;;;;;;;2.40;2.17;;;17.40;91.00;;;;;;5031224;28;20484;-68
2023/10/25 10:55:41;;;;;;;3.43;2.20;;;17.40;91.10;;;;;;5031312;28;20505;-69
2023/10/25 10:58:08;;;;;;;3.70;2.40;;;17.40;90.90;;;;;;4996950;28;20445;-69
2023/10/25 11:00:35;;;;;;;2.37;2.17;;;17.50;90.90;;;;;;5013923;28;20441;-68
2023/10/25 11:03:04;;;;;;;2.23;1.97;;;17.60;91.00;;;;;;5031448;28;20559;-69
2023/10/25 11:05:31;;;;;;;2.40;2.20;;;17.60;91.00;;;;;;5031425;28;20449;-69
2023/10/25 11:07:58;;;;;;;2.13;2.03;;;17.60;90.80;;;;;;5031494;28;20465;-69
2023/10/25 11:10:25;;;;;;;2.87;2.57;;;17.60;90.80;;;;;;5031293;28;20532;-69
2023/10/25 11:12:53;;;;;;;2.60;2.30;;;17.60;91.00;;;;;;5031116;28;20484;-69
2023/10/25 11:15:24;;;;;;;2.33;1.70;;;17.60;90.70;;;;;;5030928;28;20465;-69
2023/10/25 11:17:51;;;;;;;3.00;2.10;;;17.70;90.80;;;;;;5043708;28;20558;-69
2023/10/25 11:20:19;;;;;;;2.17;1.93;;;17.70;90.90;;;;;;5050435;28;20547;-69
2023/10/25 11:22:47;;;;;;;2.00;1.80;;;17.70;90.60;;;;;;5050950;28;20468;-68
2023/10/25 11:25:21;;;;;;;2.50;1.90;;;17.70;90.60;;;;;;5050587;28;20437;-69
2023/10/25 11:27:48;;;;;;;2.33;1.90;;;17.70;90.80;;;;;;5050558;28;20471;-69
2023/10/25 11:30:16;;;;;;;2.27;2.00;;;17.70;90.60;;;;;;5050951;28;20484;-69
2023/10/25 11:32:43;;;;;;;1.60;1.50;;;17.80;90.70;;;;;;5050614;28;21114;-69
2023/10/25 11:35:22;;;;;;;2.20;2.00;;;17.70;90.50;;;;;;5050746;28;20502;-69
2023/10/25 11:37:52;;;;;;;2.20;2.00;;;17.70;90.80;;;;;;5050922;28;20436;-69
2023/10/25 11:40:20;;;;;;;2.30;2.10;;;17.70;90.80;;;;;;5050003;28;20967;-69
2023/10/25 11:42:48;;;;;;;2.50;1.90;;;17.70;90.80;;;;;;5037964;28;20531;-69
2023/10/25 11:45:17;;;;;;;2.03;1.73;;;17.80;90.90;;;;;;5030717;28;20532;-69
2023/10/25 11:47:48;;;;;;;1.80;1.70;;;17.90;90.80;;;;;;5030418;28;20847;-69
2023/10/25 11:50:15;;;;;;;2.00;1.80;;;18.00;91.10;;;;;;5030720;28;20925;-69
2023/10/25 11:52:43;;;;;;;2.07;1.87;;;18.00;90.80;;;;;;5030498;28;20910;-69
2023/10/25 11:55:10;;;;;;;2.10;2.00;;;18.00;91.10;;;;;;5030800;28;20230;-69
2023/10/25 11:57:39;;;;;;;1.70;1.60;;;18.00;91.10;;;;;;5030343;28;20441;-69
2023/10/25 12:00:08;;;;;;;1.83;1.70;;;18.00;90.80;;;;;;5030566;28;20461;-69
2023/10/25 12:02:36;;;;;;;2.10;1.90;;;18.00;90.70;;;;;;5030530;28;20607;-69
2023/10/25 12:05:06;;;;;;;1.70;1.60;;;18.00;90.70;;;;;;5030629;28;20447;-69
2023/10/25 12:07:32;;;;;;;2.33;1.50;;;18.00;90.80;;;;;;5030666;28;20465;-69
2023/10/25 12:10:01;;;;;;;2.03;1.70;;;18.00;90.90;;;;;;5030639;28;20249;-69
2023/10/25 12:12:28;;;;;;;2.10;1.90;;;18.00;90.80;;;;;;5039542;28;20513;-70
2023/10/25 12:14:55;;;;;;;2.40;1.80;;;18.10;90.90;;;;;;5050084;28;20578;-68
2023/10/25 12:17:22;;;;;;;2.00;1.80;;;18.10;91.00;;;;;;5049916;28;20948;-69
2023/10/25 12:19:50;;;;;;;1.77;1.67;;;18.10;91.10;;;;;;5050125;28;20880;-68
2023/10/25 12:22:19;;;;;;;2.23;1.80;;;18.10;91.10;;;;;;5050866;28;20453;-69
2023/10/25 12:24:47;;;;;;;2.20;2.00;;;18.20;91.40;;;;;;5050189;28;20539;-69
2023/10/25 12:27:16;;;;;;;2.70;1.50;;;18.20;91.50;;;;;;5049881;28;20447;-69
2023/10/25 12:29:44;;;;;;;2.40;1.93;;;18.10;90.90;;;;;;5050172;28;20448;-68
2023/10/25 12:32:11;;;;;;;3.47;2.30;;;18.00;91.10;;;;;;5049853;28;20566;-69
2023/10/25 12:34:38;;;;;;;3.30;1.70;;;18.00;91.10;;;;;;5050205;28;20567;-69
2023/10/25 12:37:05;;;;;;;1.73;1.50;;;18.00;91.30;;;;;;5050418;28;20535;-69
2023/10/25 12:39:34;;;;;;;1.47;1.30;;;18.00;91.20;;;;;;5050143;28;20480;-69
2023/10/25 12:42:04;;;;;;;2.93;1.70;;;18.00;91.40;;;;;;5044593;28;20480;-69
2023/10/25 12:44:32;;;;;;;3.10;1.60;;;17.90;91.40;;;;;;5029997;28;20449;-69
2023/10/25 12:47:03;;;;;;;2.33;1.77;;;17.90;91.30;;;;;;5030143;28;20481;-69
2023/10/25 12:49:30;;;;;;;1.97;1.50;;;17.90;91.50;;;;;;5030232;28;20925;-69
2023/10/25 12:51:57;;;;;;;2.37;1.60;;;17.80;91.20;;;;;;5031474;28;20475;-69
2023/10/25 12:54:24;;;;;;;2.17;1.80;;;17.70;91.20;;;;;;5033764;28;20488;-69